Minton, Canada
Current Conditions -  °F | °C
As of 2:35 AM on Monday 20 Oct 2014 (Local Time) from KD50 Reporting Station
Clear Clear  
Wind Chill: 37°   Ceiling: Unl
Heat Index: 43°   Visibility: 10mi
Dew Point: 39°   Wind: 12mph
Humidity: 87%   Direction: 200°SSW
Pressure: 29.98"   Gusts: NA
Location:  49.17°N, 104.58°W
Report Text: KD50 200835Z AUTO 20010KT 10SM CLR 06/04 A2998 RMK AO2
Loading
Personal Weather Stations






























Interactive Weather Map New forecast layout! Learn more

10-Day Weather Forecast

Advertisements
Track Severe Weather on mobile